sensor_id;sensor_type;location;lat;lon;timestamp;P1;durP1;ratioP1;P2;durP2;ratioP2
11453;SDS011;5783;55.174;61.310;2024-01-30T06:51:32;6.30;;;4.30;;
11453;SDS011;5783;55.174;61.310;2024-01-30T07:19:05;5.20;;;3.30;;
11453;SDS011;5783;55.174;61.310;2024-01-30T07:24:04;3.30;;;2.80;;
11453;SDS011;5783;55.174;61.310;2024-01-30T07:46:19;4.65;;;3.25;;
11453;SDS011;5783;55.174;61.310;2024-01-30T07:48:48;6.05;;;3.40;;
11453;SDS011;5783;55.174;61.310;2024-01-30T08:02:12;3.90;;;3.30;;
11453;SDS011;5783;55.174;61.310;2024-01-30T08:04:42;6.35;;;3.35;;
11453;SDS011;5783;55.174;61.310;2024-01-30T08:07:12;6.10;;;2.90;;
11453;SDS011;5783;55.174;61.310;2024-01-30T08:09:43;3.20;;;2.50;;
11453;SDS011;5783;55.174;61.310;2024-01-30T08:12:12;3.60;;;2.90;;
11453;SDS011;5783;55.174;61.310;2024-01-30T08:17:09;4.20;;;3.00;;
11453;SDS011;5783;55.174;61.310;2024-01-30T08:19:39;3.15;;;2.85;;
11453;SDS011;5783;55.174;61.310;2024-01-30T08:24:36;4.40;;;3.00;;
11453;SDS011;5783;55.174;61.310;2024-01-30T08:29:36;3.10;;;2.80;;
11453;SDS011;5783;55.174;61.310;2024-01-30T08:34:34;3.35;;;2.90;;
11453;SDS011;5783;55.174;61.310;2024-01-30T08:37:03;5.15;;;2.85;;
11453;SDS011;5783;55.174;61.310;2024-01-30T08:39:32;3.17;;;2.70;;
11453;SDS011;5783;55.174;61.310;2024-01-30T08:42:01;3.85;;;2.70;;
11453;SDS011;5783;55.174;61.310;2024-01-30T08:44:30;4.90;;;3.00;;
11453;SDS011;5783;55.174;61.310;2024-01-30T08:46:59;3.60;;;2.95;;
11453;SDS011;5783;55.174;61.310;2024-01-30T08:49:29;4.00;;;3.10;;
11453;SDS011;5783;55.174;61.310;2024-01-30T08:51:58;3.70;;;2.90;;
11453;SDS011;5783;55.174;61.310;2024-01-30T08:54:27;3.10;;;2.80;;
11453;SDS011;5783;55.174;61.310;2024-01-30T08:56:56;4.25;;;2.80;;
11453;SDS011;5783;55.174;61.310;2024-01-30T08:59:25;3.37;;;3.07;;
11453;SDS011;5783;55.174;61.310;2024-01-30T09:06:53;3.50;;;3.10;;
11453;SDS011;5783;55.174;61.310;2024-01-30T09:09:22;3.90;;;3.30;;
11453;SDS011;5783;55.174;61.310;2024-01-30T09:11:51;5.60;;;3.40;;
11453;SDS011;5783;55.174;61.310;2024-01-30T09:16:48;5.00;;;3.70;;
11453;SDS011;5783;55.174;61.310;2024-01-30T09:19:17;4.50;;;3.60;;
11453;SDS011;5783;55.174;61.310;2024-01-30T09:21:47;5.55;;;3.90;;
11453;SDS011;5783;55.174;61.310;2024-01-30T09:26:45;4.65;;;3.65;;
11453;SDS011;5783;55.174;61.310;2024-01-30T09:37:00;6.25;;;3.90;;
11453;SDS011;5783;55.174;61.310;2024-01-30T09:44:28;5.20;;;3.80;;
11453;SDS011;5783;55.174;61.310;2024-01-30T09:56:54;5.25;;;4.00;;
11453;SDS011;5783;55.174;61.310;2024-01-30T10:01:51;6.50;;;4.40;;
11453;SDS011;5783;55.174;61.310;2024-01-30T10:04:20;8.00;;;4.30;;
11453;SDS011;5783;55.174;61.310;2024-01-30T10:09:20;8.77;;;4.77;;
11453;SDS011;5783;55.174;61.310;2024-01-30T10:11:50;8.35;;;4.80;;
11453;SDS011;5783;55.174;61.310;2024-01-30T10:24:14;6.87;;;5.10;;
11453;SDS011;5783;55.174;61.310;2024-01-30T10:34:08;7.30;;;5.60;;
11453;SDS011;5783;55.174;61.310;2024-01-30T10:39:08;7.00;;;5.70;;
11453;SDS011;5783;55.174;61.310;2024-01-30T10:47:00;10.80;;;6.20;;
11453;SDS011;5783;55.174;61.310;2024-01-30T10:49:29;9.00;;;6.50;;
11453;SDS011;5783;55.174;61.310;2024-01-30T10:54:29;12.15;;;8.90;;
11453;SDS011;5783;55.174;61.310;2024-01-30T10:56:59;11.65;;;8.35;;
11453;SDS011;5783;55.174;61.310;2024-01-30T10:59:30;13.87;;;11.13;;
11453;SDS011;5783;55.174;61.310;2024-01-30T11:02:01;17.53;;;14.10;;
11453;SDS011;5783;55.174;61.310;2024-01-30T11:07:41;22.97;;;15.80;;
11453;SDS011;5783;55.174;61.310;2024-01-30T11:10:11;24.55;;;18.50;;
11453;SDS011;5783;55.174;61.310;2024-01-30T11:12:41;21.90;;;16.50;;
11453;SDS011;5783;55.174;61.310;2024-01-30T11:18:01;21.30;;;16.50;;
11453;SDS011;5783;55.174;61.310;2024-01-30T11:20:30;24.77;;;18.73;;
11453;SDS011;5783;55.174;61.310;2024-01-30T11:23:21;24.85;;;19.00;;
11453;SDS011;5783;55.174;61.310;2024-01-30T11:25:51;19.87;;;17.03;;
11453;SDS011;5783;55.174;61.310;2024-01-30T11:28:21;23.20;;;18.20;;
11453;SDS011;5783;55.174;61.310;2024-01-30T11:30:51;20.90;;;16.75;;
11453;SDS011;5783;55.174;61.310;2024-01-30T11:36:12;23.80;;;18.70;;
11453;SDS011;5783;55.174;61.310;2024-01-30T11:38:43;25.77;;;19.23;;
11453;SDS011;5783;55.174;61.310;2024-01-30T11:41:13;23.60;;;18.25;;
11453;SDS011;5783;55.174;61.310;2024-01-30T11:43:51;21.55;;;15.65;;
11453;SDS011;5783;55.174;61.310;2024-01-30T11:46:35;18.20;;;14.27;;
11453;SDS011;5783;55.174;61.310;2024-01-30T11:49:04;19.70;;;15.60;;
11453;SDS011;5783;55.174;61.310;2024-01-30T11:51:33;18.80;;;14.00;;
11453;SDS011;5783;55.174;61.310;2024-01-30T11:54:03;17.87;;;13.67;;
11453;SDS011;5783;55.174;61.310;2024-01-30T11:56:32;15.10;;;12.40;;
11453;SDS011;5783;55.174;61.310;2024-01-30T11:59:01;16.85;;;12.35;;
11453;SDS011;5783;55.174;61.310;2024-01-30T12:03:59;14.95;;;11.60;;
11453;SDS011;5783;55.174;61.310;2024-01-30T12:06:28;15.67;;;10.77;;
11453;SDS011;5783;55.174;61.310;2024-01-30T12:09:00;14.30;;;10.80;;
11453;SDS011;5783;55.174;61.310;2024-01-30T12:11:31;12.40;;;9.63;;
11453;SDS011;5783;55.174;61.310;2024-01-30T12:14:00;13.20;;;10.00;;
11453;SDS011;5783;55.174;61.310;2024-01-30T12:16:29;13.65;;;11.55;;
11453;SDS011;5783;55.174;61.310;2024-01-30T12:19:00;16.83;;;12.67;;
11453;SDS011;5783;55.174;61.310;2024-01-30T12:21:29;16.10;;;13.20;;
11453;SDS011;5783;55.174;61.310;2024-01-30T12:23:59;17.70;;;13.95;;
11453;SDS011;5783;55.174;61.310;2024-01-30T12:26:28;19.95;;;15.85;;
11453;SDS011;5783;55.174;61.310;2024-01-30T12:28:57;20.70;;;16.40;;
11453;SDS011;5783;55.174;61.310;2024-01-30T12:31:27;19.83;;;15.63;;
11453;SDS011;5783;55.174;61.310;2024-01-30T12:33:58;22.30;;;16.70;;
11453;SDS011;5783;55.174;61.310;2024-01-30T12:36:28;21.65;;;15.90;;
11453;SDS011;5783;55.174;61.310;2024-01-30T12:38:57;20.27;;;16.07;;
11453;SDS011;5783;55.174;61.310;2024-01-30T12:41:27;21.20;;;16.70;;
11453;SDS011;5783;55.174;61.310;2024-01-30T12:43:57;23.30;;;16.20;;
11453;SDS011;5783;55.174;61.310;2024-01-30T12:49:15;21.80;;;15.50;;
11453;SDS011;5783;55.174;61.310;2024-01-30T12:51:44;22.00;;;17.00;;
11453;SDS011;5783;55.174;61.310;2024-01-30T12:54:13;22.50;;;16.70;;
11453;SDS011;5783;55.174;61.310;2024-01-30T12:56:42;20.80;;;15.80;;
11453;SDS011;5783;55.174;61.310;2024-01-30T12:59:11;18.60;;;15.80;;
11453;SDS011;5783;55.174;61.310;2024-01-30T13:01:40;18.15;;;14.70;;
11453;SDS011;5783;55.174;61.310;2024-01-30T13:04:10;18.40;;;13.70;;
11453;SDS011;5783;55.174;61.310;2024-01-30T13:14:03;16.10;;;12.20;;
11453;SDS011;5783;55.174;61.310;2024-01-30T13:19:00;14.65;;;11.20;;
11453;SDS011;5783;55.174;61.310;2024-01-30T13:21:29;13.40;;;10.40;;
11453;SDS011;5783;55.174;61.310;2024-01-30T13:23:59;13.93;;;10.30;;
11453;SDS011;5783;55.174;61.310;2024-01-30T13:26:28;12.95;;;10.15;;
11453;SDS011;5783;55.174;61.310;2024-01-30T13:28:57;14.67;;;10.50;;
11453;SDS011;5783;55.174;61.310;2024-01-30T13:31:26;12.70;;;9.37;;
11453;SDS011;5783;55.174;61.310;2024-01-30T13:33:55;12.90;;;8.80;;
11453;SDS011;5783;55.174;61.310;2024-01-30T13:36:24;11.50;;;8.90;;
11453;SDS011;5783;55.174;61.310;2024-01-30T13:38:53;10.80;;;8.67;;
11453;SDS011;5783;55.174;61.310;2024-01-30T13:41:22;13.30;;;8.73;;
11453;SDS011;5783;55.174;61.310;2024-01-30T13:43:51;10.30;;;8.30;;
11453;SDS011;5783;55.174;61.310;2024-01-30T13:46:20;10.55;;;8.55;;
11453;SDS011;5783;55.174;61.310;2024-01-30T13:48:50;10.80;;;8.25;;
11453;SDS011;5783;55.174;61.310;2024-01-30T13:51:19;8.40;;;7.50;;
11453;SDS011;5783;55.174;61.310;2024-01-30T13:53:48;12.03;;;8.73;;
11453;SDS011;5783;55.174;61.310;2024-01-30T13:56:17;9.90;;;8.10;;
11453;SDS011;5783;55.174;61.310;2024-01-30T14:04:07;9.40;;;8.10;;
11453;SDS011;5783;55.174;61.310;2024-01-30T14:06:37;10.20;;;8.07;;
11453;SDS011;5783;55.174;61.310;2024-01-30T14:09:08;11.17;;;7.40;;
11453;SDS011;5783;55.174;61.310;2024-01-30T14:11:39;11.23;;;8.17;;
11453;SDS011;5783;55.174;61.310;2024-01-30T14:14:09;9.73;;;8.00;;
11453;SDS011;5783;55.174;61.310;2024-01-30T14:16:38;10.90;;;8.47;;
11453;SDS011;5783;55.174;61.310;2024-01-30T14:19:07;10.30;;;8.37;;
11453;SDS011;5783;55.174;61.310;2024-01-30T14:21:36;8.87;;;7.80;;
11453;SDS011;5783;55.174;61.310;2024-01-30T14:24:06;10.20;;;7.97;;
11453;SDS011;5783;55.174;61.310;2024-01-30T14:26:35;10.50;;;8.50;;
11453;SDS011;5783;55.174;61.310;2024-01-30T14:29:04;10.60;;;8.33;;
11453;SDS011;5783;55.174;61.310;2024-01-30T14:31:33;10.40;;;8.20;;
11453;SDS011;5783;55.174;61.310;2024-01-30T14:34:02;9.03;;;7.70;;
11453;SDS011;5783;55.174;61.310;2024-01-30T14:36:32;9.25;;;7.30;;
11453;SDS011;5783;55.174;61.310;2024-01-30T14:39:01;9.77;;;7.87;;
11453;SDS011;5783;55.174;61.310;2024-01-30T14:41:30;8.80;;;7.30;;
11453;SDS011;5783;55.174;61.310;2024-01-30T14:43:59;8.30;;;7.40;;
11453;SDS011;5783;55.174;61.310;2024-01-30T14:46:28;9.10;;;7.55;;
11453;SDS011;5783;55.174;61.310;2024-01-30T14:48:58;8.30;;;7.20;;
11453;SDS011;5783;55.174;61.310;2024-01-30T14:51:31;8.85;;;7.35;;
11453;SDS011;5783;55.174;61.310;2024-01-30T14:54:00;10.60;;;7.70;;
11453;SDS011;5783;55.174;61.310;2024-01-30T14:56:29;10.75;;;7.55;;
11453;SDS011;5783;55.174;61.310;2024-01-30T14:58:58;9.25;;;6.95;;
11453;SDS011;5783;55.174;61.310;2024-01-30T15:01:28;8.40;;;6.70;;
11453;SDS011;5783;55.174;61.310;2024-01-30T20:50:15;5.70;;;4.70;;
11453;SDS011;5783;55.174;61.310;2024-01-30T21:37:17;5.00;;;3.90;;
11453;SDS011;5783;55.174;61.310;2024-01-30T21:42:15;4.80;;;3.75;;
11453;SDS011;5783;55.174;61.310;2024-01-30T23:04:10;5.80;;;4.90;;
11453;SDS011;5783;55.174;61.310;2024-01-30T23:26:24;6.80;;;5.30;;
11453;SDS011;5783;55.174;61.310;2024-01-30T23:58:34;8.00;;;5.20;;
